createdAt,value
2023-10-31T00:00:26.178Z,98398.11
2023-10-31T00:04:44.134Z,98389.17
2023-10-31T00:08:42.174Z,98385.80
2023-10-31T00:12:40.157Z,98374.98
2023-10-31T00:16:38.244Z,98364.09
2023-10-31T00:20:36.186Z,98358.56
2023-10-31T00:24:34.223Z,98353.36
2023-10-31T00:28:32.199Z,98351.07
2023-10-31T00:32:30.114Z,98349.76
2023-10-31T00:36:28.116Z,98337.90
2023-10-31T00:40:26.122Z,98322.80
2023-10-31T00:44:24.152Z,98318.84
2023-10-31T00:48:22.155Z,98323.39
2023-10-31T00:52:20.063Z,98317.76
2023-10-31T00:56:18.083Z,98318.98
2023-10-31T01:00:16.091Z,98319.96
2023-10-31T01:04:14.091Z,98320.61
2023-10-31T01:08:12.101Z,98309.39
2023-10-31T01:12:10.099Z,98298.84
2023-10-31T01:16:08.115Z,98288.77
2023-10-31T01:20:06.186Z,98283.12
2023-10-31T01:24:04.035Z,98285.89
2023-10-31T01:28:02.059Z,98270.85
2023-10-31T01:32:03.215Z,98262.48
2023-10-31T01:36:03.059Z,98256.26
2023-10-31T01:40:01.036Z,98249.59
2023-10-31T01:43:59.091Z,98240.17
2023-10-31T01:48:02.095Z,98228.98
2023-10-31T01:52:01.064Z,98226.35
2023-10-31T01:56:01.030Z,98221.02
2023-10-31T01:59:59.037Z,98214.05
2023-10-31T02:04:03.993Z,98203.77
2023-10-31T02:08:02.072Z,98191.16
2023-10-31T02:11:59.999Z,98188.50
2023-10-31T02:15:58.038Z,98178.58
2023-10-31T02:19:55.996Z,98179.53
2023-10-31T02:23:54.105Z,98167.29
2023-10-31T02:27:51.966Z,98167.20
2023-10-31T02:31:50.132Z,98160.66
2023-10-31T02:35:47.970Z,98151.02
2023-10-31T02:39:45.996Z,98148.52
2023-10-31T02:43:44.010Z,98146.42
2023-10-31T02:47:41.992Z,98143.55
2023-10-31T02:51:39.955Z,98138.42
2023-10-31T02:55:38.022Z,98126.77
2023-10-31T02:59:35.949Z,98119.63
2023-10-31T03:03:34.124Z,98115.11
2023-10-31T03:07:31.924Z,98114.29
2023-10-31T03:11:39.949Z,98104.36
2023-10-31T03:15:37.931Z,98103.23
2023-10-31T03:19:35.949Z,98098.95
2023-10-31T03:23:33.938Z,98090.70
2023-10-31T03:27:31.965Z,98082.41
2023-10-31T03:31:30.918Z,98077.95
2023-10-31T03:35:28.901Z,98076.36
2023-10-31T03:39:26.890Z,98074.27
2023-10-31T03:43:24.963Z,98068.23
2023-10-31T03:47:22.899Z,98056.23
2023-10-31T03:51:20.924Z,98051.13
2023-10-31T03:55:18.900Z,98041.35
2023-10-31T03:59:16.895Z,98039.96
2023-10-31T04:03:19.319Z,98032.52
2023-10-31T04:07:19.872Z,98027.52
2023-10-31T04:11:17.898Z,98024.17
2023-10-31T04:15:15.868Z,98019.16
2023-10-31T04:19:13.913Z,98015.50
2023-10-31T04:23:12.973Z,98010.66
2023-10-31T04:27:10.848Z,98002.20
2023-10-31T04:31:08.943Z,97996.79
2023-10-31T04:35:06.891Z,97996.65
2023-10-31T04:39:04.847Z,97997.15
2023-10-31T04:43:02.867Z,97988.73
2023-10-31T04:47:00.930Z,97978.70
2023-10-31T04:50:58.832Z,97966.21
2023-10-31T04:54:56.885Z,97954.09
2023-10-31T04:58:54.901Z,97950.83
2023-10-31T05:02:52.935Z,97948.88
2023-10-31T05:06:50.837Z,97950.65
2023-10-31T05:10:48.975Z,97949.02
2023-10-31T05:14:46.821Z,97941.02
2023-10-31T05:18:44.870Z,97938.96
2023-10-31T05:22:42.858Z,97935.31
2023-10-31T05:26:40.810Z,97934.05
2023-10-31T05:30:38.791Z,97947.22
2023-10-31T05:34:36.814Z,97940.83
2023-10-31T05:38:34.759Z,97945.17
2023-10-31T05:42:32.787Z,97936.52
2023-10-31T05:46:30.764Z,97927.61
2023-10-31T05:50:28.754Z,97920.79
2023-10-31T05:54:26.773Z,97917.32
2023-10-31T05:58:24.767Z,97924.63
2023-10-31T06:02:22.781Z,97916.93
2023-10-31T06:06:20.790Z,97914.10
2023-10-31T06:10:18.727Z,97910.17
2023-10-31T06:14:16.789Z,97908.52
2023-10-31T06:18:14.728Z,97915.53
2023-10-31T06:22:12.806Z,97913.05
2023-10-31T06:26:10.788Z,97912.01
2023-10-31T06:30:20.100Z,97914.64
2023-10-31T06:34:21.717Z,97911.84
2023-10-31T06:38:19.746Z,97909.56
2023-10-31T06:42:17.771Z,97904.86
2023-10-31T06:46:15.756Z,97902.02
2023-10-31T06:50:13.843Z,97896.75
2023-10-31T06:54:11.715Z,97893.42
2023-10-31T06:58:09.731Z,97887.46
2023-10-31T07:01:47.902Z,97876.66
2023-10-31T07:05:11.868Z,97877.77
2023-10-31T07:08:36.021Z,97877.00
2023-10-31T07:11:59.908Z,97879.48
2023-10-31T07:15:23.849Z,97873.95
2023-10-31T07:18:47.913Z,97875.23
2023-10-31T07:22:12.244Z,97869.84
2023-10-31T07:25:36.080Z,97863.84
2023-10-31T07:29:00.015Z,97863.73
2023-10-31T07:32:24.160Z,97866.40
2023-10-31T07:35:48.111Z,97865.27
2023-10-31T07:39:13.958Z,97857.86
2023-10-31T07:42:37.781Z,97855.52
2023-10-31T07:46:01.733Z,97855.24
2023-10-31T07:49:25.753Z,97853.19
2023-10-31T07:52:49.700Z,97847.89
2023-10-31T07:56:18.522Z,97839.91
2023-10-31T07:59:42.633Z,97841.74
2023-10-31T08:03:06.634Z,97838.27
2023-10-31T08:06:30.757Z,97835.67
2023-10-31T08:09:54.630Z,97824.92
2023-10-31T08:13:18.427Z,97827.20
2023-10-31T08:16:42.566Z,97824.67
2023-10-31T08:20:07.232Z,97823.11
2023-10-31T08:23:32.106Z,97814.85
2023-10-31T08:26:55.999Z,97813.73
2023-10-31T08:30:21.602Z,97810.39
2023-10-31T08:33:46.387Z,97803.05
2023-10-31T08:37:10.915Z,97807.63
2023-10-31T08:40:34.963Z,97810.65
2023-10-31T08:43:59.599Z,97811.23
2023-10-31T08:47:24.144Z,97805.89
2023-10-31T08:50:48.143Z,97802.66
2023-10-31T08:54:12.572Z,97800.31
2023-10-31T08:57:36.762Z,97802.39
2023-10-31T09:01:00.764Z,97793.45
2023-10-31T09:04:24.821Z,97793.54
2023-10-31T09:07:48.741Z,97786.79
2023-10-31T09:11:12.897Z,97793.84
2023-10-31T09:14:38.269Z,97800.48
2023-10-31T09:18:02.721Z,97797.61
2023-10-31T09:21:26.979Z,97793.18
2023-10-31T09:24:51.546Z,97788.02
2023-10-31T09:28:15.467Z,97795.92
2023-10-31T09:31:39.452Z,97795.71
2023-10-31T09:35:03.781Z,97798.10
2023-10-31T09:38:29.206Z,97788.59
2023-10-31T09:41:55.054Z,97794.52
2023-10-31T09:45:20.009Z,97793.02
2023-10-31T09:48:46.412Z,97808.39
2023-10-31T09:52:12.176Z,97809.27
2023-10-31T09:55:36.548Z,97807.33
2023-10-31T09:59:01.664Z,97805.68
2023-10-31T10:02:26.618Z,97804.71
2023-10-31T10:05:51.891Z,97811.23
2023-10-31T10:09:15.778Z,97818.95
2023-10-31T10:12:39.755Z,97812.41
2023-10-31T10:16:03.660Z,97813.29
2023-10-31T10:19:27.704Z,97815.63
2023-10-31T10:22:51.770Z,97827.27
2023-10-31T10:26:15.809Z,97824.33
2023-10-31T10:29:40.959Z,97826.66
2023-10-31T10:33:05.635Z,97818.95
2023-10-31T10:36:29.722Z,97799.27
2023-10-31T10:39:56.709Z,97797.10
2023-10-31T10:43:28.173Z,97804.52
2023-10-31T10:46:56.778Z,97802.85
2023-10-31T10:50:22.983Z,97803.60
2023-10-31T10:53:52.377Z,97805.46
2023-10-31T10:57:33.742Z,97817.27
2023-10-31T11:01:00.596Z,97813.86
2023-10-31T11:04:25.065Z,97818.05
2023-10-31T11:07:49.846Z,97814.10
2023-10-31T11:11:13.747Z,97808.02
2023-10-31T11:14:38.260Z,97811.07
2023-10-31T11:18:03.917Z,97807.95
2023-10-31T11:21:31.015Z,97810.04
2023-10-31T11:24:54.896Z,97805.77
2023-10-31T11:28:20.034Z,97796.98
2023-10-31T11:31:44.316Z,97800.44
2023-10-31T11:35:09.036Z,97793.36
2023-10-31T11:38:35.404Z,97796.52
2023-10-31T11:41:59.374Z,97796.30
2023-10-31T11:45:31.641Z,97793.56
2023-10-31T11:48:57.560Z,97795.17
2023-10-31T11:52:21.899Z,97794.91
2023-10-31T11:55:47.958Z,97796.46
2023-10-31T11:59:12.543Z,97794.09
2023-10-31T12:02:36.538Z,97792.43
2023-10-31T12:06:01.806Z,97794.68
2023-10-31T12:09:25.744Z,97795.12
2023-10-31T12:12:49.544Z,97789.52
2023-10-31T12:16:14.221Z,97788.84
2023-10-31T12:19:39.172Z,97784.30
2023-10-31T12:23:06.408Z,97790.05
2023-10-31T12:26:30.377Z,97789.98
2023-10-31T12:30:03.839Z,97795.27
2023-10-31T12:33:29.542Z,97801.24
2023-10-31T12:36:55.407Z,97802.89
2023-10-31T12:40:21.771Z,97808.49
2023-10-31T12:43:45.873Z,97807.79
2023-10-31T12:47:10.249Z,97813.44
2023-10-31T12:50:37.971Z,97824.23
2023-10-31T12:54:02.066Z,97832.83
2023-10-31T12:57:26.039Z,97837.06
2023-10-31T13:00:50.228Z,97835.12
2023-10-31T13:04:14.361Z,97828.56
2023-10-31T13:07:38.641Z,97824.64
2023-10-31T13:11:03.201Z,97823.88
2023-10-31T13:14:27.520Z,97828.77
2023-10-31T13:17:55.011Z,97840.36
2023-10-31T13:21:20.032Z,97842.19
2023-10-31T13:24:44.074Z,97839.67
2023-10-31T13:28:10.760Z,97840.89
2023-10-31T13:31:34.803Z,97834.95
2023-10-31T13:34:59.461Z,97826.09
2023-10-31T13:38:23.531Z,97817.40
2023-10-31T13:41:47.973Z,97823.33
2023-10-31T13:45:11.949Z,97829.10
2023-10-31T13:48:35.782Z,97837.52
2023-10-31T13:51:59.718Z,97844.12
2023-10-31T13:55:24.796Z,97844.73
2023-10-31T13:58:49.324Z,97844.98
2023-10-31T14:02:13.469Z,97837.77
2023-10-31T14:05:37.431Z,97833.55
2023-10-31T14:09:05.837Z,97831.70
2023-10-31T14:12:30.151Z,97834.79
2023-10-31T14:15:54.288Z,97838.54
2023-10-31T14:19:19.033Z,97839.42
2023-10-31T14:22:42.845Z,97835.95
2023-10-31T14:26:07.174Z,97834.57
2023-10-31T14:29:31.143Z,97832.73
2023-10-31T14:33:16.361Z,97833.89
2023-10-31T14:37:14.284Z,97827.35
2023-10-31T14:41:12.401Z,97831.84
2023-10-31T14:45:10.298Z,97832.69
2023-10-31T14:49:08.285Z,97840.73
2023-10-31T14:53:06.272Z,97836.23
2023-10-31T14:57:04.240Z,97835.60
2023-10-31T15:01:02.296Z,97823.05
2023-10-31T15:05:00.311Z,97814.20
2023-10-31T15:08:58.223Z,97811.31
2023-10-31T15:12:56.326Z,97802.65
2023-10-31T15:16:54.252Z,97803.89
2023-10-31T15:20:52.239Z,97801.05
2023-10-31T15:24:50.202Z,97807.65
2023-10-31T15:28:49.219Z,97801.96
2023-10-31T15:32:47.419Z,97806.77
2023-10-31T15:36:45.216Z,97809.37
2023-10-31T15:40:43.318Z,97823.41
2023-10-31T15:44:41.240Z,97826.52
2023-10-31T15:48:41.213Z,97812.29
2023-10-31T15:52:39.233Z,97800.77
2023-10-31T15:56:37.188Z,97797.83
2023-10-31T16:00:35.191Z,97806.70
2023-10-31T16:04:33.240Z,97819.32
2023-10-31T16:08:31.267Z,97828.61
2023-10-31T16:12:29.150Z,97828.94
2023-10-31T16:16:27.295Z,97826.53
2023-10-31T16:20:25.169Z,97835.82
2023-10-31T16:24:23.239Z,97847.08
2023-10-31T16:28:21.215Z,97865.20
2023-10-31T16:32:19.651Z,97870.69
2023-10-31T16:36:18.214Z,97869.91
2023-10-31T16:40:16.173Z,97889.56
2023-10-31T16:44:14.180Z,97888.15
2023-10-31T16:48:12.194Z,97887.02
2023-10-31T16:52:10.109Z,97890.86
2023-10-31T16:56:08.183Z,97910.73
2023-10-31T17:00:06.103Z,97916.91
2023-10-31T17:04:04.319Z,97930.13
2023-10-31T17:08:03.091Z,97940.29
2023-10-31T17:12:01.140Z,97945.36
2023-10-31T17:15:59.120Z,97962.26
2023-10-31T17:19:57.179Z,97967.02
2023-10-31T17:23:55.143Z,97954.70
2023-10-31T17:27:53.178Z,97944.25
2023-10-31T17:31:54.109Z,97932.71
2023-10-31T17:35:52.134Z,97924.42
2023-10-31T17:39:50.112Z,97930.79
2023-10-31T17:43:48.129Z,97945.24
2023-10-31T17:47:46.240Z,97943.80
2023-10-31T17:51:44.088Z,97936.24
2023-10-31T17:55:42.073Z,97927.20
2023-10-31T17:59:40.106Z,97921.32
2023-10-31T18:03:38.171Z,97917.45
2023-10-31T18:07:36.096Z,97922.00
2023-10-31T18:11:34.395Z,97915.42
2023-10-31T18:15:32.105Z,97915.98
2023-10-31T18:19:30.062Z,97896.07
2023-10-31T18:23:28.070Z,97871.90
2023-10-31T18:27:26.008Z,97886.20
2023-10-31T18:31:24.080Z,97890.55
2023-10-31T18:35:22.048Z,97876.92
2023-10-31T18:39:20.012Z,97875.91
2023-10-31T18:43:18.011Z,97875.38
2023-10-31T18:47:16.023Z,97877.48
2023-10-31T18:51:14.022Z,97890.70
2023-10-31T18:55:12.033Z,97894.10
2023-10-31T18:59:11.075Z,97902.54
2023-10-31T19:03:09.167Z,97911.80
2023-10-31T19:07:07.239Z,97936.59
2023-10-31T19:11:06.435Z,97953.41
2023-10-31T19:15:04.150Z,97970.38
2023-10-31T19:19:02.004Z,97966.46
2023-10-31T19:22:59.956Z,97955.27
2023-10-31T19:26:58.986Z,97928.28
2023-10-31T19:30:56.964Z,97935.64
2023-10-31T19:34:55.029Z,97945.55
2023-10-31T19:38:52.940Z,97947.92
2023-10-31T19:42:50.966Z,97948.09
2023-10-31T19:46:48.965Z,97956.84
2023-10-31T19:50:46.994Z,97967.17
2023-10-31T19:54:44.961Z,97974.48
2023-10-31T19:58:42.962Z,97977.52
2023-10-31T20:02:42.895Z,97978.33
2023-10-31T20:06:41.946Z,97989.63
2023-10-31T20:10:39.946Z,97977.30
2023-10-31T20:14:59.288Z,97966.59
2023-10-31T20:18:55.953Z,97954.32
2023-10-31T20:22:53.960Z,97949.56
2023-10-31T20:26:52.010Z,97950.71
2023-10-31T20:30:50.071Z,97950.17
2023-10-31T20:34:47.963Z,97940.11
2023-10-31T20:38:46.091Z,97959.81
2023-10-31T20:42:44.273Z,97960.23
2023-10-31T20:46:41.997Z,97970.70
2023-10-31T20:50:39.965Z,97973.77
2023-10-31T20:54:37.897Z,97967.79
2023-10-31T20:58:35.870Z,97980.40
2023-10-31T21:02:34.913Z,97990.86
2023-10-31T21:06:34.878Z,98005.56
2023-10-31T21:10:32.911Z,98024.71
2023-10-31T21:14:30.894Z,98029.27
2023-10-31T21:18:28.921Z,98030.23
2023-10-31T21:22:26.825Z,98026.22
2023-10-31T21:26:24.863Z,98022.91
2023-10-31T21:30:22.844Z,98025.88
2023-10-31T21:34:20.876Z,98016.73
2023-10-31T21:38:18.871Z,98028.34
2023-10-31T21:42:16.892Z,98033.74
2023-10-31T21:46:14.806Z,98040.48
2023-10-31T21:50:12.841Z,98052.29
2023-10-31T21:54:10.796Z,98057.12
2023-10-31T21:58:08.796Z,98072.48
2023-10-31T22:02:06.884Z,98080.79
2023-10-31T22:06:04.840Z,98080.25
2023-10-31T22:10:02.859Z,98081.67
2023-10-31T22:14:00.809Z,98088.56
2023-10-31T22:17:58.788Z,98094.43
2023-10-31T22:21:56.799Z,98088.13
2023-10-31T22:25:54.809Z,98093.04
2023-10-31T22:29:52.862Z,98100.79
2023-10-31T22:33:50.768Z,98115.13
2023-10-31T22:37:28.314Z,98123.99
2023-10-31T22:40:53.243Z,98122.16
2023-10-31T22:44:17.205Z,98116.15
2023-10-31T22:47:41.257Z,98120.73
2023-10-31T22:51:05.988Z,98126.32
2023-10-31T22:54:29.969Z,98121.33
2023-10-31T22:57:53.953Z,98129.14
2023-10-31T23:05:32.165Z,98148.77
2023-10-31T23:08:57.205Z,98144.11
2023-10-31T23:12:23.918Z,98152.02
2023-10-31T23:15:47.803Z,98155.05
2023-10-31T23:19:11.717Z,98155.20
2023-10-31T23:22:36.175Z,98158.73
2023-10-31T23:26:00.065Z,98168.27
2023-10-31T23:29:24.865Z,98172.42
2023-10-31T23:32:49.125Z,98177.88
2023-10-31T23:36:13.240Z,98185.92
2023-10-31T23:39:37.242Z,98188.33
2023-10-31T23:43:01.248Z,98193.45
2023-10-31T23:46:25.190Z,98195.23
2023-10-31T23:49:49.109Z,98203.86
2023-10-31T23:53:13.294Z,98205.11
2023-10-31T23:56:37.172Z,98199.23
